Time;durP1;ratioP1;P1;durP2;ratioP2;P2;SDS_P1;SDS_P2;PMS_P1;PMS_P2;Temp;Humidity;BMP_temperature;BMP_pressure;BME280_temperature;BME280_humidity;BME280_pressure;Samples;Min_cycle;Max_cycle;Signal;HPM_P1;HPM_P2
2022/01/03 00:00:56;;;;;;;1.87;1.87;;;17.70;69.50;;;;;;4968616;28;43408;-69
2022/01/03 00:03:25;;;;;;;1.80;1.80;;;17.70;69.50;;;;;;4984047;28;44268;-69
2022/01/03 00:05:53;;;;;;;1.70;1.70;;;17.60;69.60;;;;;;4968589;28;43891;-69
2022/01/03 00:08:21;;;;;;;1.67;1.67;;;17.50;69.80;;;;;;4968626;28;43428;-69
2022/01/03 00:10:49;;;;;;;1.87;1.87;;;17.50;70.10;;;;;;4967471;28;43965;-69
2022/01/03 00:13:17;;;;;;;1.80;1.80;;;17.40;70.30;;;;;;4968153;28;43563;-69
2022/01/03 00:15:44;;;;;;;1.67;1.67;;;17.40;70.50;;;;;;4983144;28;46157;-69
2022/01/03 00:18:14;;;;;;;1.63;1.63;;;17.30;70.50;;;;;;4968345;28;43812;-69
2022/01/03 00:20:43;;;;;;;1.70;1.70;;;17.30;70.60;;;;;;4968478;28;43982;-69
2022/01/03 00:23:11;;;;;;;1.90;1.90;;;17.30;71.10;;;;;;4968797;28;43950;-69
2022/01/03 00:25:39;;;;;;;2.10;2.00;;;17.20;71.00;;;;;;4968349;28;43770;-69
2022/01/03 00:28:11;;;;;;;1.83;1.77;;;17.30;71.10;;;;;;4968415;28;43931;-69
2022/01/03 00:30:39;;;;;;;1.90;1.80;;;17.40;70.80;;;;;;4967382;28;43930;-69
2022/01/03 00:33:09;;;;;;;2.00;1.90;;;17.40;70.40;;;;;;4968972;28;44251;-69
2022/01/03 00:35:39;;;;;;;1.60;1.60;;;17.40;70.10;;;;;;4968816;28;43996;-70
2022/01/03 00:38:07;;;;;;;1.73;1.73;;;17.50;70.30;;;;;;4968325;28;43965;-69
2022/01/03 00:40:35;;;;;;;1.70;1.70;;;17.40;70.30;;;;;;4967506;28;44009;-69
2022/01/03 00:43:05;;;;;;;1.40;1.40;;;17.40;70.50;;;;;;4969314;28;44297;-70
2022/01/03 00:45:33;;;;;;;1.63;1.63;;;17.30;70.60;;;;;;4966535;28;45804;-69
2022/01/03 00:48:06;;;;;;;1.80;1.80;;;17.30;70.80;;;;;;4968233;28;44064;-69
2022/01/03 00:50:34;;;;;;;1.50;1.50;;;17.30;70.90;;;;;;4967370;28;44062;-69
2022/01/03 00:53:04;;;;;;;1.83;1.73;;;17.20;71.00;;;;;;4968763;28;43975;-70
2022/01/03 00:55:32;;;;;;;1.67;1.67;;;17.20;71.10;;;;;;4968350;28;43942;-68
2022/01/03 00:58:03;;;;;;;1.40;1.40;;;17.20;71.20;;;;;;4982534;28;44358;-70
2022/01/03 01:00:32;;;;;;;1.70;1.70;;;17.20;71.20;;;;;;4967975;28;43903;-70
2022/01/03 01:03:04;;;;;;;1.80;1.80;;;17.20;71.40;;;;;;4982570;28;43986;-69
2022/01/03 01:05:34;;;;;;;1.50;1.50;;;17.20;71.30;;;;;;4968490;28;44035;-69
2022/01/03 01:08:03;;;;;;;1.60;1.60;;;17.30;70.90;;;;;;4968070;28;43958;-68
2022/01/03 01:10:33;;;;;;;1.70;1.70;;;17.50;70.60;;;;;;4966824;28;43995;-70
2022/01/03 01:13:01;;;;;;;1.60;1.60;;;17.60;70.10;;;;;;4967078;28;44046;-68
2022/01/03 01:15:36;;;;;;;1.60;1.60;;;17.70;69.60;;;;;;4966783;28;44137;-68
2022/01/03 01:18:05;;;;;;;1.63;1.63;;;17.70;69.40;;;;;;4966674;28;44019;-69
2022/01/03 01:20:36;;;;;;;1.70;1.70;;;17.70;69.40;;;;;;4966973;28;44002;-69
2022/01/03 01:23:06;;;;;;;1.53;1.53;;;17.60;69.60;;;;;;4966766;28;43979;-69
2022/01/03 01:28:21;;;;;;;1.90;1.80;;;17.50;70.10;;;;;;4967848;28;43973;-69
2022/01/03 01:30:49;;;;;;;1.40;1.40;;;17.40;70.30;;;;;;4966499;28;43957;-70
2022/01/03 01:33:19;;;;;;;1.50;1.50;;;17.40;70.50;;;;;;4966885;28;44262;-69
2022/01/03 01:36:07;;;;;;;1.60;1.50;;;17.30;70.60;;;;;;4968018;28;44014;-69
2022/01/03 01:38:37;;;;;;;1.50;1.50;;;17.30;71.50;;;;;;4966444;28;44106;-69
2022/01/03 01:41:07;;;;;;;1.67;1.67;;;17.20;70.90;;;;;;4966593;28;44032;-69
2022/01/03 01:43:42;;;;;;;1.30;1.30;;;17.30;71.00;;;;;;4966453;28;44086;-69
2022/01/03 01:46:13;;;;;;;1.70;1.60;;;17.40;70.70;;;;;;4966098;28;45756;-69
2022/01/03 01:48:44;;;;;;;1.90;1.80;;;17.40;70.20;;;;;;4966103;28;45456;-70
2022/01/03 01:51:13;;;;;;;1.57;1.57;;;17.50;70.10;;;;;;4966206;28;43978;-69
2022/01/03 01:53:47;;;;;;;1.60;1.60;;;17.50;70.10;;;;;;4966680;28;43935;-69
2022/01/03 01:56:19;;;;;;;1.57;1.57;;;17.40;70.20;;;;;;4963289;28;43916;-69
2022/01/03 01:59:12;;;;;;;1.50;1.50;;;17.40;70.40;;;;;;4957217;28;44508;-69
2022/01/03 02:01:43;;;;;;;1.60;1.60;;;17.30;70.60;;;;;;4948485;28;44051;-70
2022/01/03 02:04:18;;;;;;;1.27;1.27;;;17.30;70.70;;;;;;4982395;28;43975;-69
2022/01/03 02:06:47;;;;;;;1.80;1.70;;;17.30;70.90;;;;;;4967146;28;44003;-69
2022/01/03 02:09:21;;;;;;;1.50;1.50;;;17.20;70.90;;;;;;4965423;28;44363;-69
2022/01/03 02:11:51;;;;;;;1.40;1.40;;;17.20;71.00;;;;;;4967225;28;43808;-69
2022/01/03 02:14:22;;;;;;;1.50;1.50;;;17.20;71.10;;;;;;4967762;28;43367;-69
2022/01/03 02:16:52;;;;;;;1.70;1.70;;;17.20;71.20;;;;;;4959723;28;46515;-69
2022/01/03 02:19:22;;;;;;;1.50;1.50;;;17.20;71.40;;;;;;4960360;28;44886;-69
2022/01/03 02:21:51;;;;;;;1.70;1.70;;;17.20;71.20;;;;;;4981631;28;43935;-69
2022/01/03 02:24:25;;;;;;;1.87;1.87;;;17.40;70.80;;;;;;4982112;28;43955;-68
2022/01/03 02:26:53;;;;;;;1.77;1.67;;;17.50;70.30;;;;;;4981664;28;45799;-69
2022/01/03 02:29:21;;;;;;;1.70;1.67;;;17.60;69.80;;;;;;4966384;28;44017;-69
2022/01/03 02:31:49;;;;;;;1.60;1.60;;;17.70;69.50;;;;;;4966715;28;43780;-69
2022/01/03 02:34:17;;;;;;;1.43;1.43;;;17.70;69.30;;;;;;4968838;28;43910;-69
2022/01/03 02:36:45;;;;;;;1.57;1.57;;;17.70;69.50;;;;;;4968537;28;44026;-70
2022/01/03 02:39:15;;;;;;;1.30;1.30;;;17.60;69.60;;;;;;4969792;28;43852;-70
2022/01/03 02:41:44;;;;;;;1.40;1.40;;;17.50;69.80;;;;;;4969186;28;44046;-69
2022/01/03 02:44:12;;;;;;;1.33;1.33;;;17.40;70.00;;;;;;4984975;28;43881;-69
2022/01/03 02:46:40;;;;;;;1.40;1.40;;;17.40;70.30;;;;;;4984976;28;45542;-69
2022/01/03 02:49:08;;;;;;;1.40;1.40;;;17.30;70.40;;;;;;4984842;28;45306;-68
2022/01/03 02:51:37;;;;;;;1.20;1.20;;;17.30;70.60;;;;;;4981454;28;43956;-69
2022/01/03 02:54:05;;;;;;;1.80;1.70;;;17.30;70.80;;;;;;4969084;28;44099;-69
2022/01/03 02:56:35;;;;;;;1.57;1.57;;;17.20;70.90;;;;;;4984830;28;45979;-69
2022/01/03 02:59:12;;;;;;;1.43;1.43;;;17.30;71.00;;;;;;4984904;28;44104;-69
2022/01/03 03:01:41;;;;;;;1.47;1.47;;;17.40;70.70;;;;;;4984214;28;43975;-69
2022/01/03 03:04:10;;;;;;;1.37;1.37;;;17.50;70.40;;;;;;4984687;28;44098;-69
2022/01/03 03:06:38;;;;;;;1.47;1.47;;;17.50;70.20;;;;;;4984975;28;45253;-68
2022/01/03 03:09:07;;;;;;;1.43;1.43;;;17.50;70.20;;;;;;4984646;28;44330;-69
2022/01/03 03:11:37;;;;;;;1.37;1.37;;;17.40;70.20;;;;;;4984722;28;44020;-69
2022/01/03 03:14:07;;;;;;;1.33;1.33;;;17.40;70.40;;;;;;4984846;28;44061;-70
2022/01/03 03:16:35;;;;;;;1.33;1.33;;;17.30;70.50;;;;;;4969870;28;45000;-69
2022/01/03 03:19:03;;;;;;;1.40;1.40;;;17.30;70.70;;;;;;4984326;28;44129;-69
2022/01/03 03:21:31;;;;;;;1.20;1.20;;;17.30;70.90;;;;;;4964874;28;43776;-69
2022/01/03 03:23:59;;;;;;;1.30;1.30;;;17.20;70.90;;;;;;4951131;28;43965;-69
2022/01/03 03:26:28;;;;;;;1.17;1.17;;;17.20;71.00;;;;;;4949087;28;44046;-69
2022/01/03 03:28:57;;;;;;;1.30;1.30;;;17.20;71.10;;;;;;4949139;28;43921;-69
2022/01/03 03:31:25;;;;;;;1.37;1.37;;;17.20;71.10;;;;;;4949527;28;44122;-69
2022/01/03 03:33:53;;;;;;;1.30;1.30;;;17.20;71.90;;;;;;4949784;28;44092;-69
2022/01/03 03:36:22;;;;;;;1.40;1.40;;;17.20;71.30;;;;;;4948975;28;45853;-69
2022/01/03 03:38:50;;;;;;;1.40;1.40;;;17.30;71.10;;;;;;4948991;28;44758;-69
2022/01/03 03:41:19;;;;;;;1.40;1.40;;;17.40;70.70;;;;;;4950556;28;43484;-69
2022/01/03 03:43:54;;;;;;;1.43;1.43;;;17.60;70.20;;;;;;4949134;28;44121;-69
2022/01/03 03:46:24;;;;;;;1.20;1.20;;;17.70;69.60;;;;;;4948786;28;45874;-69
2022/01/03 03:48:52;;;;;;;1.53;1.43;;;17.70;69.30;;;;;;4961859;28;45020;-70
2022/01/03 03:51:23;;;;;;;1.40;1.40;;;17.70;69.30;;;;;;4949098;28;43927;-69
2022/01/03 03:53:53;;;;;;;1.30;1.30;;;17.60;69.50;;;;;;4949562;28;44015;-69
2022/01/03 03:56:24;;;;;;;1.40;1.40;;;17.60;69.70;;;;;;4948713;28;46999;-69
2022/01/03 03:58:52;;;;;;;1.30;1.30;;;17.50;70.00;;;;;;4948600;28;45356;-69
2022/01/03 04:01:21;;;;;;;1.27;1.27;;;17.50;70.30;;;;;;4948446;28;43972;-69
2022/01/03 04:03:55;;;;;;;1.30;1.30;;;17.40;70.50;;;;;;4949218;28;43469;-69
2022/01/03 04:06:24;;;;;;;1.20;1.20;;;17.30;70.50;;;;;;4948677;28;45697;-70
2022/01/03 04:08:56;;;;;;;1.30;1.30;;;17.30;70.70;;;;;;4948583;28;44057;-69
2022/01/03 04:11:24;;;;;;;1.00;1.00;;;17.30;70.90;;;;;;4948759;28;43413;-70
2022/01/03 04:13:53;;;;;;;1.10;1.10;;;17.20;71.10;;;;;;4949022;28;44042;-69
2022/01/03 04:16:21;;;;;;;1.40;1.40;;;17.30;71.00;;;;;;4949801;28;43876;-69
2022/01/03 04:18:49;;;;;;;1.30;1.30;;;17.40;70.70;;;;;;4949900;28;44022;-69
2022/01/03 04:21:20;;;;;;;1.37;1.37;;;17.40;70.30;;;;;;4948641;28;43911;-69
2022/01/03 04:23:49;;;;;;;1.17;1.17;;;17.50;70.20;;;;;;4948975;28;44098;-69
2022/01/03 04:26:17;;;;;;;1.27;1.27;;;17.40;70.90;;;;;;4949811;28;43943;-69
2022/01/03 04:28:45;;;;;;;1.40;1.40;;;17.40;70.40;;;;;;4948215;28;44128;-68
2022/01/03 04:31:14;;;;;;;1.30;1.30;;;17.40;70.50;;;;;;4948449;28;43435;-70
2022/01/03 04:33:42;;;;;;;1.30;1.30;;;17.30;70.60;;;;;;4948737;28;44000;-69
2022/01/03 04:36:10;;;;;;;1.23;1.23;;;17.30;70.80;;;;;;4948067;28;46100;-69
2022/01/03 04:38:40;;;;;;;1.30;1.30;;;17.30;70.90;;;;;;4948070;28;45868;-69
2022/01/03 04:41:09;;;;;;;1.33;1.33;;;17.20;70.90;;;;;;4948432;28;43481;-69
2022/01/03 04:43:37;;;;;;;1.40;1.40;;;17.20;71.10;;;;;;4948645;28;43457;-69
2022/01/03 04:46:05;;;;;;;1.50;1.50;;;17.20;71.10;;;;;;4948192;28;46198;-69
2022/01/03 04:48:33;;;;;;;1.20;1.20;;;17.20;71.20;;;;;;4949516;28;44064;-68
2022/01/03 04:51:02;;;;;;;1.00;1.00;;;17.10;71.30;;;;;;4949567;28;43363;-70
2022/01/03 04:53:30;;;;;;;1.00;1.00;;;17.20;71.20;;;;;;4948473;28;43981;-69
2022/01/03 04:55:59;;;;;;;1.20;1.20;;;17.40;70.90;;;;;;4947258;28;45352;-70
2022/01/03 04:58:27;;;;;;;1.23;1.23;;;17.50;70.50;;;;;;4949165;28;43762;-69
2022/01/03 05:00:56;;;;;;;1.20;1.20;;;17.60;69.90;;;;;;4947946;28;43922;-69
2022/01/03 05:03:24;;;;;;;1.10;1.10;;;17.70;69.50;;;;;;4948249;28;43896;-69
2022/01/03 05:05:52;;;;;;;1.30;1.30;;;17.80;69.30;;;;;;4947779;28;44278;-69
2022/01/03 05:08:21;;;;;;;1.30;1.30;;;17.70;69.30;;;;;;4947748;28;44869;-69
2022/01/03 05:10:52;;;;;;;1.20;1.20;;;17.60;69.50;;;;;;4947964;28;43862;-69
2022/01/03 05:13:21;;;;;;;1.27;1.27;;;17.60;69.80;;;;;;4949479;28;44060;-69
2022/01/03 05:15:49;;;;;;;1.00;1.00;;;17.50;70.00;;;;;;4947808;28;43945;-69
2022/01/03 05:18:18;;;;;;;1.10;1.10;;;17.40;70.20;;;;;;4947465;28;44055;-69
2022/01/03 05:20:46;;;;;;;1.37;1.37;;;17.40;70.40;;;;;;4947610;28;44034;-69
2022/01/03 05:23:14;;;;;;;1.40;1.40;;;17.30;70.60;;;;;;4948107;28;43452;-69
2022/01/03 05:25:42;;;;;;;1.33;1.23;;;17.30;70.70;;;;;;4948816;28;43982;-69
2022/01/03 05:28:11;;;;;;;3.70;1.77;;;17.20;70.90;;;;;;4947461;28;45108;-70
2022/01/03 05:30:40;;;;;;;1.63;1.53;;;17.30;70.90;;;;;;4947649;28;43986;-69
2022/01/03 05:33:08;;;;;;;1.80;1.70;;;17.40;70.60;;;;;;4948076;28;44251;-69
2022/01/03 05:35:37;;;;;;;1.77;1.67;;;17.50;70.40;;;;;;4947520;28;43909;-69
2022/01/03 05:38:06;;;;;;;2.67;2.17;;;17.50;70.20;;;;;;4966394;28;44456;-69
2022/01/03 05:40:35;;;;;;;1.80;1.70;;;17.40;70.10;;;;;;4966500;28;44078;-69
2022/01/03 05:43:03;;;;;;;2.97;1.80;;;17.40;70.30;;;;;;4966731;28;43448;-68
2022/01/03 05:45:32;;;;;;;2.23;2.03;;;17.40;70.40;;;;;;4959849;28;45943;-69
2022/01/03 05:48:02;;;;;;;2.33;2.13;;;17.30;70.50;;;;;;4959903;28;43965;-69
2022/01/03 05:50:30;;;;;;;2.33;2.07;;;17.30;70.70;;;;;;4960320;28;43943;-69
2022/01/03 05:52:59;;;;;;;2.10;1.90;;;17.20;70.80;;;;;;4982436;28;43557;-69
2022/01/03 05:55:27;;;;;;;2.10;2.00;;;17.20;70.90;;;;;;4967159;28;44085;-68
2022/01/03 05:57:55;;;;;;;2.47;2.27;;;17.20;71.00;;;;;;4965884;28;43874;-69
2022/01/03 06:00:28;;;;;;;3.30;2.40;;;17.20;71.10;;;;;;4982007;28;43967;-69
2022/01/03 06:02:58;;;;;;;3.07;2.10;;;17.20;71.20;;;;;;4966131;28;44083;-69
2022/01/03 06:05:42;;;;;;;3.50;2.50;;;17.20;71.40;;;;;;4981831;28;44085;-69
2022/01/03 06:08:13;;;;;;;2.70;2.50;;;17.20;71.40;;;;;;4965792;28;43935;-69
2022/01/03 06:10:44;;;;;;;2.60;2.10;;;17.30;70.90;;;;;;4981822;28;43951;-69
2022/01/03 06:13:19;;;;;;;3.43;2.40;;;17.40;70.50;;;;;;4982205;28;43902;-69
2022/01/03 06:15:49;;;;;;;2.70;2.30;;;17.60;70.10;;;;;;4981579;28;43930;-70
2022/01/03 06:18:18;;;;;;;2.80;2.60;;;17.70;69.70;;;;;;4981289;28;43829;-69
2022/01/03 06:20:51;;;;;;;2.53;2.33;;;17.70;69.40;;;;;;4981763;28;43460;-70
2022/01/03 06:23:24;;;;;;;2.60;2.40;;;17.70;69.50;;;;;;4979666;28;43556;-69
2022/01/03 06:25:52;;;;;;;2.30;2.20;;;17.60;69.60;;;;;;4966890;28;44569;-69
2022/01/03 06:28:35;;;;;;;2.80;2.60;;;17.50;70.60;;;;;;4981583;28;44018;-70
2022/01/03 06:31:04;;;;;;;3.20;2.20;;;17.40;70.10;;;;;;4982032;28;43384;-69
2022/01/03 06:33:32;;;;;;;2.30;2.20;;;17.40;70.40;;;;;;4967452;28;43905;-70
2022/01/03 06:36:02;;;;;;;2.97;2.30;;;17.40;70.60;;;;;;4965622;28;44015;-69
2022/01/03 06:38:31;;;;;;;2.53;2.33;;;17.30;70.60;;;;;;4981248;28;45080;-69
2022/01/03 06:40:59;;;;;;;2.50;2.30;;;17.30;70.80;;;;;;4981834;28;43476;-70
2022/01/03 06:43:27;;;;;;;2.73;2.40;;;17.20;71.00;;;;;;4981592;28;44236;-69
2022/01/03 06:45:55;;;;;;;2.37;2.23;;;17.30;71.10;;;;;;4964957;28;45046;-69
2022/01/03 06:48:23;;;;;;;2.73;2.30;;;17.30;70.70;;;;;;4966404;28;44007;-69
2022/01/03 06:50:51;;;;;;;3.30;2.63;;;17.40;70.40;;;;;;4965206;28;43370;-69
2022/01/03 06:53:20;;;;;;;2.90;2.60;;;17.40;70.10;;;;;;4981728;28;44141;-68
2022/01/03 06:55:48;;;;;;;2.70;2.30;;;17.40;70.20;;;;;;4981620;28;46788;-70
2022/01/03 06:58:17;;;;;;;2.40;2.20;;;17.40;70.30;;;;;;4980990;28;44529;-69
2022/01/03 07:00:46;;;;;;;2.40;2.20;;;17.40;70.50;;;;;;4981227;28;44114;-69
2022/01/03 07:03:14;;;;;;;2.50;2.30;;;17.30;70.60;;;;;;4981466;28;43962;-69
2022/01/03 07:05:42;;;;;;;2.30;2.20;;;17.30;70.80;;;;;;4981118;28;45988;-69
2022/01/03 07:08:10;;;;;;;2.30;2.20;;;17.20;70.90;;;;;;4966062;28;44106;-69
2022/01/03 07:10:40;;;;;;;2.07;1.90;;;17.20;71.10;;;;;;4966481;28;44118;-69
2022/01/03 07:13:07;;;;;;;2.30;2.20;;;17.20;71.20;;;;;;4966906;28;43357;-69
2022/01/03 07:21:06;;;;;;;2.17;1.97;;;17.20;71.40;;;;;;4969416;28;43943;-70
2022/01/03 07:23:35;;;;;;;2.40;2.20;;;17.20;71.50;;;;;;4970109;28;43983;-70
2022/01/03 07:26:04;;;;;;;2.83;2.23;;;17.30;71.10;;;;;;4968559;28;46174;-68
2022/01/03 07:28:32;;;;;;;2.17;2.03;;;17.40;70.70;;;;;;4969276;28;43954;-69
2022/01/03 07:31:00;;;;;;;2.23;2.10;;;17.60;70.30;;;;;;4969841;28;43969;-69
2022/01/03 07:33:28;;;;;;;2.60;2.40;;;17.70;69.80;;;;;;4970047;28;43922;-69
2022/01/03 07:35:56;;;;;;;2.50;2.27;;;17.70;69.50;;;;;;4969578;28;43897;-69
2022/01/03 07:38:23;;;;;;;2.27;2.10;;;17.70;69.60;;;;;;4967964;28;44071;-69
2022/01/03 07:40:51;;;;;;;2.00;1.90;;;17.60;69.70;;;;;;4969476;28;43361;-70
2022/01/03 07:43:21;;;;;;;2.03;1.83;;;17.50;69.90;;;;;;4969893;28;43390;-69
2022/01/03 07:45:49;;;;;;;1.97;1.87;;;17.50;70.20;;;;;;4968907;28;43967;-69
2022/01/03 07:48:17;;;;;;;2.30;2.20;;;17.40;70.30;;;;;;4968881;28;43502;-69
2022/01/03 07:50:45;;;;;;;2.67;2.17;;;17.30;70.50;;;;;;4969098;28;43868;-69
2022/01/03 07:53:13;;;;;;;2.63;2.30;;;17.30;70.70;;;;;;4969304;28;43536;-69
2022/01/03 07:55:43;;;;;;;2.03;1.93;;;17.30;70.80;;;;;;4968925;28;44066;-69
2022/01/03 07:58:15;;;;;;;3.23;2.17;;;17.30;71.00;;;;;;4968724;28;43950;-69
2022/01/03 08:00:44;;;;;;;2.30;2.10;;;17.30;71.20;;;;;;4969219;28;43897;-69
2022/01/03 08:03:12;;;;;;;2.40;2.20;;;17.30;70.90;;;;;;4966591;28;44037;-69
2022/01/03 08:05:41;;;;;;;2.50;2.30;;;17.40;70.50;;;;;;4967619;28;44902;-69
2022/01/03 08:08:10;;;;;;;2.37;2.10;;;17.50;70.30;;;;;;4967364;28;43958;-69
2022/01/03 08:10:40;;;;;;;2.13;2.03;;;17.40;70.10;;;;;;4967817;28;44062;-69
2022/01/03 08:13:08;;;;;;;1.90;1.80;;;17.40;70.30;;;;;;4968062;28;43951;-69
2022/01/03 08:15:38;;;;;;;1.87;1.77;;;17.40;70.40;;;;;;4967700;28;43664;-69
2022/01/03 08:18:07;;;;;;;1.90;1.80;;;17.30;70.60;;;;;;4967293;28;44020;-69
2022/01/03 08:20:35;;;;;;;2.00;1.90;;;17.30;70.70;;;;;;4967576;28;43939;-68
2022/01/03 08:23:03;;;;;;;2.30;2.20;;;17.20;70.80;;;;;;4982409;28;43991;-68
2022/01/03 08:25:33;;;;;;;2.27;2.17;;;17.20;70.90;;;;;;4966908;28;43970;-69
2022/01/03 08:28:01;;;;;;;1.83;1.73;;;17.20;71.00;;;;;;4966693;28;44129;-69
2022/01/03 08:30:29;;;;;;;1.97;1.80;;;17.20;71.10;;;;;;4966496;28;44083;-69
2022/01/03 08:32:57;;;;;;;2.10;2.00;;;17.20;71.20;;;;;;4966723;28;43824;-68
2022/01/03 08:35:26;;;;;;;2.27;2.07;;;17.20;71.20;;;;;;4966663;28;43975;-70
2022/01/03 08:37:54;;;;;;;2.00;1.90;;;17.20;71.40;;;;;;4966517;28;44096;-69
2022/01/03 08:40:22;;;;;;;2.10;2.00;;;17.30;71.20;;;;;;4966784;28;43864;-70
2022/01/03 08:42:51;;;;;;;2.30;2.13;;;17.40;70.80;;;;;;4967006;28;43984;-69
2022/01/03 08:45:19;;;;;;;2.40;2.20;;;17.50;70.40;;;;;;4981108;28;44423;-69
2022/01/03 08:47:47;;;;;;;2.60;2.20;;;17.60;69.90;;;;;;4966830;28;44008;-69
2022/01/03 08:50:17;;;;;;;2.00;1.90;;;17.70;69.50;;;;;;4967059;28;43467;-69
2022/01/03 08:52:47;;;;;;;2.33;1.87;;;17.70;69.30;;;;;;4965820;28;43868;-69
2022/01/03 08:55:15;;;;;;;1.90;1.80;;;17.60;69.40;;;;;;4966549;28;43976;-69
2022/01/03 08:57:44;;;;;;;1.87;1.77;;;17.60;69.70;;;;;;4966554;28;44026;-69
2022/01/03 09:00:12;;;;;;;2.27;2.17;;;17.50;69.90;;;;;;4966711;28;43485;-69
2022/01/03 09:03:37;;;;;;;1.67;1.63;;;17.40;70.10;;;;;;5089930;27;43970;-68
2022/01/03 09:06:10;;;;;;;2.07;1.90;;;17.40;70.40;;;;;;5076039;28;44642;-69
2022/01/03 09:08:38;;;;;;;1.80;1.70;;;17.30;70.50;;;;;;5083588;27;43386;-69
2022/01/03 09:11:05;;;;;;;1.70;1.60;;;17.30;70.70;;;;;;5083859;28;43963;-69
2022/01/03 09:13:34;;;;;;;1.73;1.70;;;17.30;70.80;;;;;;5081789;28;45955;-69
2022/01/03 09:16:06;;;;;;;1.90;1.80;;;17.30;71.00;;;;;;5081688;28;45163;-69
2022/01/03 09:18:34;;;;;;;2.00;1.90;;;17.30;70.90;;;;;;5083387;28;44085;-69
2022/01/03 09:21:03;;;;;;;1.60;1.60;;;17.40;70.50;;;;;;5083641;27;43987;-69
2022/01/03 09:23:35;;;;;;;1.80;1.70;;;17.50;70.30;;;;;;5082777;28;44960;-69
2022/01/03 09:28:52;;;;;;;2.17;2.00;;;17.40;70.20;;;;;;5083000;28;43972;-70
2022/01/03 09:31:23;;;;;;;1.73;1.67;;;17.40;70.40;;;;;;5083441;28;43922;-69
2022/01/03 09:33:52;;;;;;;2.00;1.80;;;17.40;70.60;;;;;;5082871;27;44930;-68
2022/01/03 09:36:21;;;;;;;1.90;1.80;;;17.30;70.60;;;;;;5082700;28;43461;-70
2022/01/03 09:38:49;;;;;;;2.00;1.90;;;17.30;70.90;;;;;;5082826;28;43901;-69
2022/01/03 09:41:19;;;;;;;1.80;1.70;;;17.20;70.90;;;;;;5083178;28;43945;-68
2022/01/03 09:43:48;;;;;;;2.07;2.07;;;17.20;71.00;;;;;;5082258;28;43970;-68
2022/01/03 09:46:20;;;;;;;1.97;1.87;;;17.20;71.10;;;;;;5082659;27;43971;-69
2022/01/03 09:48:52;;;;;;;1.77;1.67;;;17.20;71.20;;;;;;5076666;28;44082;-69
2022/01/03 09:51:27;;;;;;;1.67;1.57;;;17.20;71.20;;;;;;5077501;28;43388;-70
2022/01/03 09:53:55;;;;;;;1.87;1.77;;;17.20;71.40;;;;;;5082363;28;43995;-69
2022/01/03 09:56:23;;;;;;;2.10;2.00;;;17.30;71.20;;;;;;5081179;28;44893;-70
2022/01/03 09:58:51;;;;;;;2.10;2.00;;;17.40;70.90;;;;;;5081235;28;43873;-69
2022/01/03 10:01:19;;;;;;;1.80;1.70;;;17.50;70.40;;;;;;5082429;28;44195;-69
2022/01/03 10:03:50;;;;;;;1.77;1.67;;;17.70;69.90;;;;;;5082269;27;44085;-68
2022/01/03 10:06:18;;;;;;;1.97;1.87;;;17.70;69.50;;;;;;5082676;28;43894;-69
2022/01/03 10:08:48;;;;;;;1.60;1.60;;;17.70;69.40;;;;;;5082426;28;44061;-70
2022/01/03 10:11:16;;;;;;;2.10;2.00;;;17.70;69.50;;;;;;5082606;27;43773;-70
2022/01/03 10:13:46;;;;;;;1.73;1.63;;;17.60;69.70;;;;;;5074954;27;44151;-69
2022/01/03 10:16:14;;;;;;;1.50;1.50;;;17.50;69.90;;;;;;5068565;28;43727;-68
2022/01/03 10:19:02;;;;;;;1.73;1.57;;;17.40;70.10;;;;;;5068680;28;43969;-70
2022/01/03 10:21:34;;;;;;;1.73;1.63;;;17.40;70.40;;;;;;5067608;28;43959;-69
2022/01/03 10:24:03;;;;;;;1.70;1.60;;;17.30;70.60;;;;;;5068456;28;43958;-69
2022/01/03 10:26:31;;;;;;;1.93;1.83;;;17.30;70.80;;;;;;5068454;28;43999;-70
2022/01/03 10:29:13;;;;;;;2.20;2.03;;;17.20;70.80;;;;;;5068503;28;43924;-70
2022/01/03 10:31:43;;;;;;;1.83;1.73;;;17.20;71.20;;;;;;5068778;28;43592;-70
2022/01/03 10:34:13;;;;;;;2.23;2.03;;;17.30;71.10;;;;;;5068067;28;44019;-69
2022/01/03 10:36:42;;;;;;;2.50;2.30;;;17.40;70.80;;;;;;5068246;28;44122;-68
2022/01/03 10:39:16;;;;;;;2.70;2.13;;;17.40;70.50;;;;;;5068259;28;43947;-69
2022/01/03 10:41:44;;;;;;;2.10;2.00;;;17.50;70.30;;;;;;5069042;28;44246;-68
2022/01/03 10:44:12;;;;;;;1.90;1.80;;;17.40;70.40;;;;;;5067587;28;43943;-70
2022/01/03 10:46:49;;;;;;;1.70;1.63;;;17.40;70.60;;;;;;5068210;28;44049;-69
2022/01/03 10:49:19;;;;;;;2.30;2.20;;;17.30;70.70;;;;;;5068453;28;44062;-69
2022/01/03 10:51:47;;;;;;;2.30;2.20;;;17.30;70.90;;;;;;5068412;28;44108;-69
2022/01/03 10:54:18;;;;;;;2.03;1.93;;;17.20;71.00;;;;;;5067645;28;45250;-69
2022/01/03 10:56:48;;;;;;;2.13;1.93;;;17.20;71.20;;;;;;5068095;28;44266;-69
2022/01/03 10:59:21;;;;;;;1.93;1.93;;;17.20;71.30;;;;;;5067889;28;43945;-69
2022/01/03 11:01:50;;;;;;;2.20;2.07;;;17.20;71.40;;;;;;5068273;28;44500;-69
2022/01/03 11:04:32;;;;;;;2.00;1.90;;;17.10;71.40;;;;;;5067720;28;44091;-69
2022/01/03 11:10:43;;;;;;;1.93;1.83;;;17.10;71.40;;;;;;5067959;28;44139;-69
2022/01/03 11:13:09;;;;;;;2.13;2.03;;;17.20;71.50;;;;;;5065099;28;43840;-70
2022/01/03 11:15:37;;;;;;;2.23;2.13;;;17.40;71.00;;;;;;5067974;28;43957;-69
2022/01/03 11:18:09;;;;;;;2.00;1.90;;;17.60;70.60;;;;;;5067953;28;43401;-69
2022/01/03 11:20:37;;;;;;;2.20;2.00;;;17.70;70.00;;;;;;5068105;28;43911;-69
2022/01/03 11:23:05;;;;;;;1.83;1.73;;;17.70;69.70;;;;;;5068132;28;43856;-71
2022/01/03 11:25:35;;;;;;;2.10;2.00;;;17.70;69.60;;;;;;5064973;28;46195;-69
2022/01/03 11:28:03;;;;;;;2.10;2.00;;;17.60;69.70;;;;;;5064390;28;45172;-69
2022/01/03 11:30:31;;;;;;;1.83;1.73;;;17.50;69.90;;;;;;5067392;28;43421;-69
2022/01/03 11:33:00;;;;;;;1.93;1.80;;;17.40;70.10;;;;;;5068091;28;43562;-69
2022/01/03 11:35:32;;;;;;;1.97;1.87;;;17.40;70.40;;;;;;5067558;28;44005;-69
2022/01/03 11:38:00;;;;;;;1.80;1.70;;;17.30;70.60;;;;;;5065696;28;45205;-69
2022/01/03 11:40:29;;;;;;;2.10;2.00;;;17.30;70.80;;;;;;5066172;28;44126;-69
2022/01/03 11:42:58;;;;;;;2.00;1.90;;;17.20;70.90;;;;;;5067521;28;43966;-70
2022/01/03 11:45:26;;;;;;;1.87;1.77;;;17.20;71.00;;;;;;5066782;28;43579;-69
2022/01/03 11:47:54;;;;;;;2.20;2.00;;;17.20;71.30;;;;;;5067010;28;44123;-70
2022/01/03 11:50:22;;;;;;;1.97;1.87;;;17.30;71.20;;;;;;5067241;28;43978;-69
2022/01/03 11:52:50;;;;;;;1.60;1.60;;;17.40;70.80;;;;;;5067548;28;44131;-69
2022/01/03 11:55:18;;;;;;;2.07;1.97;;;17.40;70.40;;;;;;5067076;28;44002;-70
2022/01/03 11:58:11;;;;;;;1.90;1.80;;;17.40;70.40;;;;;;5066971;28;44122;-69
2022/01/03 12:03:50;;;;;;;1.80;1.70;;;17.40;70.70;;;;;;5067442;28;43992;-69
2022/01/03 12:06:30;;;;;;;1.73;1.73;;;17.30;70.80;;;;;;5065393;28;46015;-69
2022/01/03 12:09:00;;;;;;;1.70;1.60;;;17.20;70.90;;;;;;5066940;28;43930;-69
2022/01/03 12:11:29;;;;;;;1.90;1.80;;;17.20;71.00;;;;;;5065554;28;43407;-70
2022/01/03 12:13:58;;;;;;;2.00;1.90;;;17.20;71.00;;;;;;5067339;28;43583;-68
2022/01/03 12:16:54;;;;;;;1.70;1.60;;;17.20;71.10;;;;;;5065296;28;45587;-69
2022/01/03 12:19:30;;;;;;;1.60;1.60;;;17.10;71.10;;;;;;5019171;28;44962;-69
2022/01/03 12:22:00;;;;;;;1.93;1.83;;;17.10;71.20;;;;;;5066864;28;43991;-69
2022/01/03 12:24:42;;;;;;;2.00;1.73;;;17.10;71.10;;;;;;5067060;28;43913;-69
2022/01/03 12:27:32;;;;;;;2.10;1.90;;;17.20;71.30;;;;;;5066394;28;43965;-68
2022/01/03 12:30:20;;;;;;;2.07;1.97;;;17.30;71.00;;;;;;5066619;28;43970;-69
2022/01/03 12:33:12;;;;;;;1.73;1.63;;;17.40;70.40;;;;;;5067342;28;44018;-70
2022/01/03 12:35:41;;;;;;;2.27;2.07;;;17.60;69.90;;;;;;5067134;28;44111;-70
2022/01/03 12:38:22;;;;;;;1.60;1.50;;;17.70;69.50;;;;;;5059478;28;45588;-69
2022/01/03 12:41:01;;;;;;;1.80;1.60;;;17.70;69.30;;;;;;5066720;28;43775;-69
2022/01/03 12:43:52;;;;;;;1.70;1.60;;;17.70;69.40;;;;;;5066438;28;44004;-69
2022/01/03 12:46:21;;;;;;;1.60;1.60;;;17.60;69.60;;;;;;5067042;28;43949;-69
2022/01/03 12:48:56;;;;;;;1.90;1.60;;;17.50;69.90;;;;;;5066269;28;43904;-69
2022/01/03 12:51:35;;;;;;;1.87;1.77;;;17.50;70.20;;;;;;5066346;28;43871;-69
2022/01/03 12:54:07;;;;;;;1.80;1.70;;;17.40;70.40;;;;;;5066658;28;43890;-69
2022/01/03 12:56:35;;;;;;;1.50;1.50;;;17.30;70.60;;;;;;5067222;28;43419;-69
2022/01/03 12:59:13;;;;;;;2.07;1.97;;;17.30;70.80;;;;;;5064498;28;46130;-69
2022/01/03 13:01:41;;;;;;;4.83;1.93;;;17.30;70.90;;;;;;5064581;28;45510;-69
2022/01/03 13:04:21;;;;;;;7.93;1.70;;;17.20;71.10;;;;;;5066299;28;43943;-69
2022/01/03 13:06:49;;;;;;;10.07;2.20;;;17.30;71.10;;;;;;5066733;28;43982;-70
2022/01/03 13:09:18;;;;;;;8.93;2.13;;;17.40;70.80;;;;;;5066051;28;43923;-69
2022/01/03 13:11:47;;;;;;;5.40;2.10;;;17.50;70.60;;;;;;5066030;28;43933;-69
2022/01/03 13:14:19;;;;;;;1.77;1.67;;;17.40;70.30;;;;;;5065965;28;43854;-69
2022/01/03 13:16:48;;;;;;;3.00;1.67;;;17.40;70.40;;;;;;5060194;28;43309;-69
2022/01/03 13:19:17;;;;;;;6.33;1.80;;;17.40;70.70;;;;;;5059492;28;44154;-69
2022/01/03 13:21:47;;;;;;;5.00;2.10;;;17.40;70.90;;;;;;5059782;28;44003;-69